sensor_id;sensor_type;location;lat;lon;timestamp;P1;durP1;ratioP1;P2;durP2;ratioP2
35380;SDS011;21486;51.916;8.378;2022-09-12T07:27:31;20.67;;;11.77;;
35380;SDS011;21486;51.916;8.378;2022-09-12T07:29:57;22.50;;;11.77;;
35380;SDS011;21486;51.916;8.378;2022-09-12T13:01:19;7.07;;;4.45;;
35380;SDS011;21486;51.916;8.378;2022-09-12T13:04:00;9.82;;;5.60;;
35380;SDS011;21486;51.916;8.378;2022-09-12T13:06:34;7.47;;;4.80;;
35380;SDS011;21486;51.916;8.378;2022-09-12T13:58:00;6.63;;;4.50;;
35380;SDS011;21486;51.916;8.378;2022-09-12T14:00:27;5.90;;;4.10;;
35380;SDS011;21486;51.916;8.378;2022-09-12T14:02:56;9.30;;;4.28;;
35380;SDS011;21486;51.916;8.378;2022-09-12T14:05:43;5.97;;;3.88;;
35380;SDS011;21486;51.916;8.378;2022-09-12T14:08:11;5.40;;;3.80;;
35380;SDS011;21486;51.916;8.378;2022-09-12T14:32:37;7.30;;;4.22;;
35380;SDS011;21486;51.916;8.378;2022-09-12T14:35:17;8.05;;;4.45;;
35380;SDS011;21486;51.916;8.378;2022-09-12T14:37:45;8.82;;;4.72;;
35380;SDS011;21486;51.916;8.378;2022-09-12T14:40:14;6.18;;;4.05;;
35380;SDS011;21486;51.916;8.378;2022-09-12T14:42:41;5.05;;;3.55;;
35380;SDS011;21486;51.916;8.378;2022-09-12T14:45:40;8.10;;;3.40;;
35380;SDS011;21486;51.916;8.378;2022-09-12T14:47:59;4.95;;;3.40;;
35380;SDS011;21486;51.916;8.378;2022-09-12T14:50:26;5.03;;;3.20;;
35380;SDS011;21486;51.916;8.378;2022-09-12T14:55:29;4.47;;;3.08;;
35380;SDS011;21486;51.916;8.378;2022-09-12T14:58:15;8.07;;;3.60;;
35380;SDS011;21486;51.916;8.378;2022-09-12T15:01:00;4.40;;;3.43;;
35380;SDS011;21486;51.916;8.378;2022-09-12T15:03:29;4.97;;;3.22;;
35380;SDS011;21486;51.916;8.378;2022-09-12T15:05:55;4.90;;;3.53;;
35380;SDS011;21486;51.916;8.378;2022-09-12T15:08:22;8.63;;;3.88;;
35380;SDS011;21486;51.916;8.378;2022-09-12T15:10:49;4.95;;;3.40;;
35380;SDS011;21486;51.916;8.378;2022-09-12T15:13:16;4.35;;;3.38;;
35380;SDS011;21486;51.916;8.378;2022-09-12T15:15:53;4.88;;;3.72;;
35380;SDS011;21486;51.916;8.378;2022-09-12T15:18:20;6.40;;;3.50;;
35380;SDS011;21486;51.916;8.378;2022-09-12T15:20:46;5.57;;;3.25;;
35380;SDS011;21486;51.916;8.378;2022-09-12T15:23:14;5.60;;;3.80;;
35380;SDS011;21486;51.916;8.378;2022-09-12T15:25:42;5.95;;;3.60;;
35380;SDS011;21486;51.916;8.378;2022-09-12T15:28:15;5.05;;;3.42;;
35380;SDS011;21486;51.916;8.378;2022-09-12T15:30:41;7.50;;;3.38;;
35380;SDS011;21486;51.916;8.378;2022-09-12T15:33:08;6.70;;;3.42;;
35380;SDS011;21486;51.916;8.378;2022-09-12T15:35:34;5.03;;;3.28;;
35380;SDS011;21486;51.916;8.378;2022-09-12T15:37:59;5.93;;;3.72;;
35380;SDS011;21486;51.916;8.378;2022-09-12T15:40:25;5.03;;;3.15;;
35380;SDS011;21486;51.916;8.378;2022-09-12T15:42:51;4.35;;;3.28;;
35380;SDS011;21486;51.916;8.378;2022-09-12T15:45:18;5.15;;;3.60;;
35380;SDS011;21486;51.916;8.378;2022-09-12T15:47:45;5.05;;;3.42;;
35380;SDS011;21486;51.916;8.378;2022-09-12T15:50:11;6.95;;;3.53;;
35380;SDS011;21486;51.916;8.378;2022-09-12T15:52:37;4.10;;;3.25;;
35380;SDS011;21486;51.916;8.378;2022-09-12T15:55:03;5.55;;;3.75;;
35380;SDS011;21486;51.916;8.378;2022-09-12T15:57:29;5.97;;;3.55;;
35380;SDS011;21486;51.916;8.378;2022-09-12T15:59:55;10.73;;;3.63;;
35380;SDS011;21486;51.916;8.378;2022-09-12T16:02:21;6.22;;;3.08;;
35380;SDS011;21486;51.916;8.378;2022-09-12T16:04:47;6.03;;;3.22;;
35380;SDS011;21486;51.916;8.378;2022-09-12T16:07:13;4.25;;;3.40;;
35380;SDS011;21486;51.916;8.378;2022-09-12T16:09:39;4.40;;;3.45;;
35380;SDS011;21486;51.916;8.378;2022-09-12T16:12:05;6.90;;;3.58;;
35380;SDS011;21486;51.916;8.378;2022-09-12T16:14:31;4.40;;;3.35;;
35380;SDS011;21486;51.916;8.378;2022-09-12T16:16:57;5.47;;;3.20;;
35380;SDS011;21486;51.916;8.378;2022-09-12T16:19:23;5.22;;;3.25;;
35380;SDS011;21486;51.916;8.378;2022-09-12T16:21:49;4.18;;;3.30;;
35380;SDS011;21486;51.916;8.378;2022-09-12T16:24:15;9.80;;;5.32;;
35380;SDS011;21486;51.916;8.378;2022-09-12T16:26:41;13.73;;;7.68;;
35380;SDS011;21486;51.916;8.378;2022-09-12T16:29:08;5.22;;;3.42;;
35380;SDS011;21486;51.916;8.378;2022-09-12T16:31:35;4.10;;;3.35;;
35380;SDS011;21486;51.916;8.378;2022-09-12T16:34:03;5.47;;;3.72;;
35380;SDS011;21486;51.916;8.378;2022-09-12T16:36:29;7.32;;;4.60;;
35380;SDS011;21486;51.916;8.378;2022-09-12T16:38:55;4.80;;;3.70;;
35380;SDS011;21486;51.916;8.378;2022-09-12T16:41:22;4.88;;;3.50;;
35380;SDS011;21486;51.916;8.378;2022-09-12T16:43:51;8.27;;;4.18;;
35380;SDS011;21486;51.916;8.378;2022-09-12T16:46:18;6.47;;;3.63;;
35380;SDS011;21486;51.916;8.378;2022-09-12T16:48:45;8.23;;;3.50;;
35380;SDS011;21486;51.916;8.378;2022-09-12T16:51:13;6.72;;;3.83;;
35380;SDS011;21486;51.916;8.378;2022-09-12T16:53:39;5.55;;;3.97;;
35380;SDS011;21486;51.916;8.378;2022-09-12T16:56:05;8.48;;;5.00;;
35380;SDS011;21486;51.916;8.378;2022-09-12T16:58:31;5.30;;;4.03;;
35380;SDS011;21486;51.916;8.378;2022-09-12T17:00:58;7.00;;;4.20;;
35380;SDS011;21486;51.916;8.378;2022-09-12T17:03:24;6.97;;;4.43;;
35380;SDS011;21486;51.916;8.378;2022-09-12T17:06:04;10.18;;;4.72;;
35380;SDS011;21486;51.916;8.378;2022-09-12T17:08:32;7.95;;;5.38;;
35380;SDS011;21486;51.916;8.378;2022-09-12T17:11:02;8.23;;;4.75;;
35380;SDS011;21486;51.916;8.378;2022-09-12T17:13:28;6.65;;;3.97;;
35380;SDS011;21486;51.916;8.378;2022-09-12T17:15:55;7.37;;;4.00;;
35380;SDS011;21486;51.916;8.378;2022-09-12T17:18:21;6.57;;;4.35;;
35380;SDS011;21486;51.916;8.378;2022-09-12T17:20:47;6.47;;;3.70;;
35380;SDS011;21486;51.916;8.378;2022-09-12T17:23:13;6.20;;;4.78;;
35380;SDS011;21486;51.916;8.378;2022-09-12T17:25:39;7.63;;;4.40;;
35380;SDS011;21486;51.916;8.378;2022-09-12T17:28:05;8.18;;;4.78;;
35380;SDS011;21486;51.916;8.378;2022-09-12T17:30:34;10.10;;;5.30;;
35380;SDS011;21486;51.916;8.378;2022-09-12T17:33:00;6.28;;;4.45;;
35380;SDS011;21486;51.916;8.378;2022-09-12T17:35:27;7.80;;;4.68;;
35380;SDS011;21486;51.916;8.378;2022-09-12T17:37:53;6.97;;;5.10;;
35380;SDS011;21486;51.916;8.378;2022-09-12T17:40:19;7.82;;;4.88;;
35380;SDS011;21486;51.916;8.378;2022-09-12T17:42:45;6.05;;;4.43;;
35380;SDS011;21486;51.916;8.378;2022-09-12T17:45:11;5.35;;;4.60;;
35380;SDS011;21486;51.916;8.378;2022-09-12T17:47:38;7.18;;;4.70;;
35380;SDS011;21486;51.916;8.378;2022-09-12T17:50:07;10.98;;;4.40;;
35380;SDS011;21486;51.916;8.378;2022-09-12T17:52:33;8.65;;;4.78;;
35380;SDS011;21486;51.916;8.378;2022-09-12T17:54:59;7.40;;;4.38;;
35380;SDS011;21486;51.916;8.378;2022-09-12T17:57:25;6.68;;;4.53;;
35380;SDS011;21486;51.916;8.378;2022-09-12T17:59:51;7.65;;;4.60;;
35380;SDS011;21486;51.916;8.378;2022-09-12T18:02:17;8.13;;;4.75;;
35380;SDS011;21486;51.916;8.378;2022-09-12T18:04:44;5.97;;;4.45;;
35380;SDS011;21486;51.916;8.378;2022-09-12T18:07:11;9.30;;;4.97;;
35380;SDS011;21486;51.916;8.378;2022-09-12T18:09:37;9.15;;;5.50;;
35380;SDS011;21486;51.916;8.378;2022-09-12T18:12:04;7.65;;;5.07;;
35380;SDS011;21486;51.916;8.378;2022-09-12T18:14:31;9.23;;;5.30;;
35380;SDS011;21486;51.916;8.378;2022-09-12T18:16:56;8.60;;;4.90;;
35380;SDS011;21486;51.916;8.378;2022-09-12T18:19:24;9.32;;;5.35;;
35380;SDS011;21486;51.916;8.378;2022-09-12T18:21:51;7.25;;;5.28;;
35380;SDS011;21486;51.916;8.378;2022-09-12T18:24:17;10.75;;;5.70;;
35380;SDS011;21486;51.916;8.378;2022-09-12T18:26:43;7.40;;;5.18;;
35380;SDS011;21486;51.916;8.378;2022-09-12T18:29:09;8.73;;;5.05;;
35380;SDS011;21486;51.916;8.378;2022-09-12T18:31:36;9.52;;;5.35;;
35380;SDS011;21486;51.916;8.378;2022-09-12T18:34:02;11.73;;;5.13;;
35380;SDS011;21486;51.916;8.378;2022-09-12T18:36:29;8.50;;;4.97;;
35380;SDS011;21486;51.916;8.378;2022-09-12T18:38:56;8.97;;;5.00;;
35380;SDS011;21486;51.916;8.378;2022-09-12T18:41:23;7.70;;;4.80;;
35380;SDS011;21486;51.916;8.378;2022-09-12T18:43:53;8.70;;;5.28;;
35380;SDS011;21486;51.916;8.378;2022-09-12T18:46:19;10.32;;;4.82;;
35380;SDS011;21486;51.916;8.378;2022-09-12T18:48:45;7.05;;;4.22;;
35380;SDS011;21486;51.916;8.378;2022-09-12T18:51:15;6.07;;;4.60;;
35380;SDS011;21486;51.916;8.378;2022-09-12T18:53:42;9.23;;;4.97;;
35380;SDS011;21486;51.916;8.378;2022-09-12T18:56:09;6.93;;;5.00;;
35380;SDS011;21486;51.916;8.378;2022-09-12T18:58:37;8.63;;;4.70;;
35380;SDS011;21486;51.916;8.378;2022-09-12T19:01:11;8.30;;;5.13;;
35380;SDS011;21486;51.916;8.378;2022-09-12T19:03:37;6.87;;;4.50;;
35380;SDS011;21486;51.916;8.378;2022-09-12T19:06:11;7.60;;;4.95;;
35380;SDS011;21486;51.916;8.378;2022-09-12T19:08:37;7.37;;;4.70;;
35380;SDS011;21486;51.916;8.378;2022-09-12T19:11:04;6.60;;;4.55;;
35380;SDS011;21486;51.916;8.378;2022-09-12T19:13:30;11.88;;;6.32;;
35380;SDS011;21486;51.916;8.378;2022-09-12T19:15:58;12.35;;;6.13;;
35380;SDS011;21486;51.916;8.378;2022-09-12T19:18:24;12.88;;;6.35;;
35380;SDS011;21486;51.916;8.378;2022-09-12T19:20:50;7.07;;;5.23;;
35380;SDS011;21486;51.916;8.378;2022-09-12T19:23:16;8.02;;;4.68;;
35380;SDS011;21486;51.916;8.378;2022-09-12T19:25:43;11.68;;;5.13;;
35380;SDS011;21486;51.916;8.378;2022-09-12T19:28:09;7.95;;;4.65;;
35380;SDS011;21486;51.916;8.378;2022-09-12T19:30:35;12.20;;;5.95;;
35380;SDS011;21486;51.916;8.378;2022-09-12T19:33:01;9.02;;;5.85;;
35380;SDS011;21486;51.916;8.378;2022-09-12T19:35:28;9.55;;;6.00;;
35380;SDS011;21486;51.916;8.378;2022-09-12T19:37:53;8.52;;;5.07;;
35380;SDS011;21486;51.916;8.378;2022-09-12T19:40:19;10.32;;;4.72;;
35380;SDS011;21486;51.916;8.378;2022-09-12T19:42:45;9.52;;;4.82;;
35380;SDS011;21486;51.916;8.378;2022-09-12T19:45:11;8.05;;;4.70;;
35380;SDS011;21486;51.916;8.378;2022-09-12T19:47:37;8.60;;;5.00;;
35380;SDS011;21486;51.916;8.378;2022-09-12T19:50:03;9.45;;;4.88;;
35380;SDS011;21486;51.916;8.378;2022-09-12T19:52:30;10.05;;;4.70;;
35380;SDS011;21486;51.916;8.378;2022-09-12T19:54:56;7.53;;;4.90;;
35380;SDS011;21486;51.916;8.378;2022-09-12T19:57:22;9.18;;;5.07;;
35380;SDS011;21486;51.916;8.378;2022-09-12T19:59:48;7.22;;;4.88;;
35380;SDS011;21486;51.916;8.378;2022-09-12T20:02:14;8.07;;;5.40;;
35380;SDS011;21486;51.916;8.378;2022-09-12T20:04:40;8.52;;;5.25;;
35380;SDS011;21486;51.916;8.378;2022-09-12T20:07:06;7.88;;;5.38;;
35380;SDS011;21486;51.916;8.378;2022-09-12T20:09:32;10.07;;;5.55;;
35380;SDS011;21486;51.916;8.378;2022-09-12T20:11:59;12.50;;;5.80;;
35380;SDS011;21486;51.916;8.378;2022-09-12T20:14:25;7.70;;;5.80;;
35380;SDS011;21486;51.916;8.378;2022-09-12T20:16:51;9.15;;;5.47;;
35380;SDS011;21486;51.916;8.378;2022-09-12T20:19:17;8.65;;;5.20;;
35380;SDS011;21486;51.916;8.378;2022-09-12T20:21:43;8.30;;;5.78;;
35380;SDS011;21486;51.916;8.378;2022-09-12T20:24:10;11.75;;;5.68;;
35380;SDS011;21486;51.916;8.378;2022-09-12T20:26:36;6.75;;;5.22;;
35380;SDS011;21486;51.916;8.378;2022-09-12T20:29:02;9.30;;;5.50;;
35380;SDS011;21486;51.916;8.378;2022-09-12T20:31:28;9.27;;;5.78;;
35380;SDS011;21486;51.916;8.378;2022-09-12T20:33:54;8.57;;;5.93;;
35380;SDS011;21486;51.916;8.378;2022-09-12T20:36:20;8.03;;;5.83;;
35380;SDS011;21486;51.916;8.378;2022-09-12T20:38:48;10.02;;;6.00;;
35380;SDS011;21486;51.916;8.378;2022-09-12T20:41:14;9.07;;;6.00;;
35380;SDS011;21486;51.916;8.378;2022-09-12T20:43:40;10.20;;;6.30;;
35380;SDS011;21486;51.916;8.378;2022-09-12T20:46:07;9.57;;;6.35;;
35380;SDS011;21486;51.916;8.378;2022-09-12T20:48:34;10.40;;;6.40;;
35380;SDS011;21486;51.916;8.378;2022-09-12T20:51:00;9.87;;;6.10;;
35380;SDS011;21486;51.916;8.378;2022-09-12T20:53:26;10.30;;;6.60;;
35380;SDS011;21486;51.916;8.378;2022-09-12T20:55:52;11.25;;;6.65;;
35380;SDS011;21486;51.916;8.378;2022-09-12T20:58:19;8.60;;;6.18;;
35380;SDS011;21486;51.916;8.378;2022-09-12T21:00:46;11.57;;;6.70;;
35380;SDS011;21486;51.916;8.378;2022-09-12T21:03:12;12.95;;;6.45;;
35380;SDS011;21486;51.916;8.378;2022-09-12T21:05:40;11.73;;;6.40;;
35380;SDS011;21486;51.916;8.378;2022-09-12T21:08:06;9.68;;;5.68;;
35380;SDS011;21486;51.916;8.378;2022-09-12T21:10:32;12.40;;;6.45;;
35380;SDS011;21486;51.916;8.378;2022-09-12T21:12:58;11.20;;;6.13;;
35380;SDS011;21486;51.916;8.378;2022-09-12T21:15:24;8.55;;;6.00;;
35380;SDS011;21486;51.916;8.378;2022-09-12T21:17:50;14.57;;;6.68;;
35380;SDS011;21486;51.916;8.378;2022-09-12T21:20:16;14.07;;;6.82;;
35380;SDS011;21486;51.916;8.378;2022-09-12T21:22:42;11.35;;;5.97;;
35380;SDS011;21486;51.916;8.378;2022-09-12T21:25:08;8.98;;;6.55;;
35380;SDS011;21486;51.916;8.378;2022-09-12T21:27:35;10.45;;;6.60;;
35380;SDS011;21486;51.916;8.378;2022-09-12T21:30:00;9.50;;;6.35;;
35380;SDS011;21486;51.916;8.378;2022-09-12T21:32:30;10.95;;;6.72;;
35380;SDS011;21486;51.916;8.378;2022-09-12T21:35:02;9.52;;;6.53;;
35380;SDS011;21486;51.916;8.378;2022-09-12T21:37:28;8.52;;;5.97;;
35380;SDS011;21486;51.916;8.378;2022-09-12T21:39:54;8.73;;;6.70;;
35380;SDS011;21486;51.916;8.378;2022-09-12T21:42:21;10.23;;;6.38;;
35380;SDS011;21486;51.916;8.378;2022-09-12T21:44:47;9.10;;;6.18;;
35380;SDS011;21486;51.916;8.378;2022-09-12T21:47:13;8.38;;;5.95;;
35380;SDS011;21486;51.916;8.378;2022-09-12T21:49:39;9.65;;;6.00;;
35380;SDS011;21486;51.916;8.378;2022-09-12T21:52:05;10.73;;;5.93;;
35380;SDS011;21486;51.916;8.378;2022-09-12T21:54:30;9.50;;;6.10;;
35380;SDS011;21486;51.916;8.378;2022-09-12T21:56:59;10.50;;;6.18;;
35380;SDS011;21486;51.916;8.378;2022-09-12T21:59:24;9.10;;;6.10;;
35380;SDS011;21486;51.916;8.378;2022-09-12T22:01:50;12.48;;;5.95;;
35380;SDS011;21486;51.916;8.378;2022-09-12T22:04:15;14.23;;;6.20;;
35380;SDS011;21486;51.916;8.378;2022-09-12T22:06:41;8.95;;;5.97;;
35380;SDS011;21486;51.916;8.378;2022-09-12T22:09:06;9.27;;;5.97;;
35380;SDS011;21486;51.916;8.378;2022-09-12T22:11:32;9.27;;;6.10;;
35380;SDS011;21486;51.916;8.378;2022-09-12T22:13:58;9.38;;;6.22;;
35380;SDS011;21486;51.916;8.378;2022-09-12T22:16:23;8.40;;;6.00;;
35380;SDS011;21486;51.916;8.378;2022-09-12T22:18:49;11.00;;;6.28;;
35380;SDS011;21486;51.916;8.378;2022-09-12T22:21:17;8.15;;;6.28;;
35380;SDS011;21486;51.916;8.378;2022-09-12T22:23:43;8.02;;;5.70;;
35380;SDS011;21486;51.916;8.378;2022-09-12T22:26:28;10.23;;;6.38;;
35380;SDS011;21486;51.916;8.378;2022-09-12T22:28:56;9.13;;;6.28;;
35380;SDS011;21486;51.916;8.378;2022-09-12T22:31:22;10.25;;;6.35;;
35380;SDS011;21486;51.916;8.378;2022-09-12T22:33:48;9.77;;;6.65;;
35380;SDS011;21486;51.916;8.378;2022-09-12T22:36:15;11.65;;;6.72;;
35380;SDS011;21486;51.916;8.378;2022-09-12T22:38:41;10.73;;;6.32;;
35380;SDS011;21486;51.916;8.378;2022-09-12T22:41:09;10.10;;;6.30;;
35380;SDS011;21486;51.916;8.378;2022-09-12T22:43:36;9.20;;;5.85;;
35380;SDS011;21486;51.916;8.378;2022-09-12T22:46:06;8.70;;;6.10;;
35380;SDS011;21486;51.916;8.378;2022-09-12T22:48:32;9.38;;;6.22;;
35380;SDS011;21486;51.916;8.378;2022-09-12T22:50:58;10.90;;;6.40;;
35380;SDS011;21486;51.916;8.378;2022-09-12T22:53:24;9.90;;;6.47;;
35380;SDS011;21486;51.916;8.378;2022-09-12T22:55:50;8.70;;;5.65;;
35380;SDS011;21486;51.916;8.378;2022-09-12T22:58:16;10.73;;;6.40;;
35380;SDS011;21486;51.916;8.378;2022-09-12T23:00:45;10.80;;;6.40;;
35380;SDS011;21486;51.916;8.378;2022-09-12T23:03:13;10.17;;;6.10;;
35380;SDS011;21486;51.916;8.378;2022-09-12T23:05:39;9.03;;;6.50;;
35380;SDS011;21486;51.916;8.378;2022-09-12T23:08:05;8.90;;;5.95;;
35380;SDS011;21486;51.916;8.378;2022-09-12T23:10:33;9.85;;;5.78;;
35380;SDS011;21486;51.916;8.378;2022-09-12T23:12:59;8.57;;;5.97;;
35380;SDS011;21486;51.916;8.378;2022-09-12T23:15:25;9.75;;;6.68;;
35380;SDS011;21486;51.916;8.378;2022-09-12T23:17:52;8.93;;;6.25;;
35380;SDS011;21486;51.916;8.378;2022-09-12T23:20:18;9.90;;;6.10;;
35380;SDS011;21486;51.916;8.378;2022-09-12T23:22:44;8.50;;;6.38;;
35380;SDS011;21486;51.916;8.378;2022-09-12T23:25:10;13.02;;;6.85;;
35380;SDS011;21486;51.916;8.378;2022-09-12T23:27:36;9.68;;;6.35;;
35380;SDS011;21486;51.916;8.378;2022-09-12T23:30:04;9.98;;;6.70;;
35380;SDS011;21486;51.916;8.378;2022-09-12T23:32:30;8.93;;;6.15;;
35380;SDS011;21486;51.916;8.378;2022-09-12T23:34:56;9.73;;;6.63;;
35380;SDS011;21486;51.916;8.378;2022-09-12T23:37:23;9.73;;;6.57;;
35380;SDS011;21486;51.916;8.378;2022-09-12T23:39:49;12.23;;;6.50;;
35380;SDS011;21486;51.916;8.378;2022-09-12T23:42:15;9.07;;;5.70;;
35380;SDS011;21486;51.916;8.378;2022-09-12T23:44:41;12.07;;;6.63;;
35380;SDS011;21486;51.916;8.378;2022-09-12T23:47:07;10.97;;;6.30;;
35380;SDS011;21486;51.916;8.378;2022-09-12T23:49:33;8.93;;;6.00;;
35380;SDS011;21486;51.916;8.378;2022-09-12T23:51:59;10.73;;;6.30;;
35380;SDS011;21486;51.916;8.378;2022-09-12T23:54:25;8.87;;;6.23;;
35380;SDS011;21486;51.916;8.378;2022-09-12T23:56:51;9.27;;;6.45;;
35380;SDS011;21486;51.916;8.378;2022-09-12T23:59:17;8.60;;;6.32;;
